Time;durP1;ratioP1;P1;durP2;ratioP2;P2;SDS_P1;SDS_P2;PMS_P1;PMS_P2;Temp;Humidity;BMP_temperature;BMP_pressure;BME280_temperature;BME280_humidity;BME280_pressure;Samples;Min_cycle;Max_cycle;Signal;HPM_P1;HPM_P2
2023/06/04 00:01:51;;;;;;;2.67;2.37;;;;;;;-141.84;44.42;20313.84;5071072;28;20201;-71
2023/06/04 00:04:19;;;;;;;3.53;2.27;;;;;;;-141.84;44.42;20338.22;5057537;28;20292;-73
2023/06/04 00:06:48;;;;;;;3.37;2.30;;;;;;;-141.84;44.69;20344.31;5066817;28;20201;-73
2023/06/04 00:09:17;;;;;;;3.57;2.47;;;;;;;-141.84;45.34;20330.09;5052602;28;20194;-72
2023/06/04 00:11:45;;;;;;;2.80;2.30;;;;;;;-141.84;44.69;20305.69;5052872;28;20328;-73
2023/06/04 00:14:16;;;;;;;2.33;2.13;;;;;;;-141.84;44.69;20352.44;5052442;28;20206;-72
2023/06/04 00:16:44;;;;;;;3.37;2.20;;;;;;;-141.84;44.86;20348.38;5052249;28;20280;-71
2023/06/04 00:19:13;;;;;;;4.07;2.37;;;;;;;-141.84;44.85;20334.16;5052317;28;20280;-74
2023/06/04 00:21:42;;;;;;;4.07;2.27;;;;;;;-141.84;45.14;20338.22;5051989;28;20292;-72
2023/06/04 00:24:12;;;;;;;3.63;2.13;;;;;;;-141.84;45.02;20311.78;5069996;28;20216;-72
2023/06/04 00:26:41;;;;;;;2.70;2.10;;;;;;;-141.84;45.52;20269.13;5069583;28;20292;-71
2023/06/04 00:29:10;;;;;;;3.00;2.30;;;;;;;-141.84;45.48;20289.44;5052033;28;20219;-71
2023/06/04 00:31:40;;;;;;;3.77;2.30;;;;;;;-141.84;45.53;20267.09;5061874;28;20209;-73
2023/06/04 00:34:08;;;;;;;2.43;2.23;;;;;;;-141.84;45.49;20299.59;5068311;28;20237;-72
2023/06/04 00:36:37;;;;;;;3.20;2.47;;;;;;;-141.84;45.62;20305.69;5052263;28;20198;-72
2023/06/04 00:39:05;;;;;;;6.03;2.00;;;;;;;-141.84;45.81;20273.19;5060070;28;20302;-73
2023/06/04 00:41:34;;;;;;;3.13;2.20;;;;;;;-141.84;45.49;20281.31;5072388;28;20232;-71
2023/06/04 00:44:06;;;;;;;3.47;2.33;;;;;;;-141.84;45.76;20275.22;5072545;28;20240;-71
2023/06/04 00:46:37;;;;;;;4.47;2.47;;;;;;;-141.84;46.12;20228.47;5073613;28;20188;-72
2023/06/04 00:49:07;;;;;;;2.70;2.20;;;;;;;-141.84;46.03;20271.16;5073567;28;20256;-71
2023/06/04 00:51:36;;;;;;;2.33;2.00;;;;;;;-141.84;46.26;20230.50;5073434;28;20272;-72
2023/06/04 00:54:08;;;;;;;2.40;2.10;;;;;;;-141.84;46.33;20271.16;5075468;28;20587;-72
2023/06/04 00:56:38;;;;;;;3.33;1.97;;;;;;;-141.84;46.87;20248.78;5076445;28;20181;-72
2023/06/04 00:59:08;;;;;;;2.90;2.20;;;;;;;-141.84;46.54;20271.16;5075999;28;20260;-72
2023/06/04 01:01:45;;;;;;;2.90;2.07;;;;;;;-141.84;46.62;20244.72;5073340;28;20685;-72
2023/06/04 01:04:19;;;;;;;5.00;2.43;;;;;;;-141.84;46.69;20260.97;5073218;28;20242;-71
2023/06/04 01:06:51;;;;;;;2.40;2.10;;;;;;;-141.84;46.87;20234.56;5074140;28;20189;-73
2023/06/04 01:09:21;;;;;;;2.20;2.00;;;;;;;-141.84;46.93;20246.75;5052916;28;20178;-72
2023/06/04 01:11:49;;;;;;;5.00;2.27;;;;;;;-141.84;46.74;20232.53;5053511;28;20201;-71
2023/06/04 01:14:18;;;;;;;2.87;2.10;;;;;;;-141.84;46.91;20228.47;5053969;28;20198;-72
2023/06/04 01:16:50;;;;;;;3.27;2.30;;;;;;;-141.84;46.93;20230.50;5053105;28;20715;-71
2023/06/04 01:19:47;;;;;;;2.67;2.30;;;;;;;-141.84;47.17;20195.94;5063771;28;20248;-71
2023/06/04 01:22:34;;;;;;;3.00;1.93;;;;;;;-141.84;47.69;20183.75;5074109;28;20544;-71
2023/06/04 01:25:06;;;;;;;2.87;2.00;;;;;;;-141.84;47.33;20181.72;5054342;28;20186;-72
2023/06/04 01:27:36;;;;;;;3.47;2.20;;;;;;;-141.84;47.34;20197.97;5064958;28;20694;-72
2023/06/04 01:30:05;;;;;;;3.40;1.90;;;;;;;-141.84;47.53;20167.47;5075102;28;20649;-71
2023/06/04 01:32:34;;;;;;;2.10;1.87;;;;;;;-141.84;47.45;20161.38;5074969;28;20254;-71
2023/06/04 01:35:08;;;;;;;4.03;2.07;;;;;;;-141.84;47.90;20171.56;5064418;28;20193;-72
2023/06/04 01:37:37;;;;;;;2.30;2.00;;;;;;;-141.84;47.74;20187.81;5054817;28;20272;-73
2023/06/04 01:40:08;;;;;;;3.23;1.90;;;;;;;-141.84;47.71;20197.97;5054529;28;20654;-74
2023/06/04 01:42:36;;;;;;;3.33;2.00;;;;;;;-141.84;47.47;20210.16;5054501;28;20182;-73
2023/06/04 01:45:06;;;;;;;2.50;2.30;;;;;;;-141.84;47.44;20200.00;5053200;28;20244;-71
2023/06/04 01:47:34;;;;;;;3.17;2.40;;;;;;;-141.84;47.69;20179.69;5052949;28;20291;-71
2023/06/04 01:50:09;;;;;;;2.40;2.00;;;;;;;-141.84;48.00;20151.22;5052821;28;20403;-72
2023/06/04 01:52:37;;;;;;;4.70;2.03;;;;;;;-141.84;47.81;20173.59;5054610;28;20248;-71
2023/06/04 01:55:07;;;;;;;2.40;2.20;;;;;;;-141.84;48.17;20147.16;5054601;28;20292;-71
2023/06/04 01:57:36;;;;;;;2.67;2.47;;;;;;;-141.84;48.29;20122.78;5053959;28;20209;-70
2023/06/04 02:00:08;;;;;;;3.57;2.20;;;;;;;-141.84;48.24;20173.59;5053927;28;20223;-71
2023/06/04 02:02:37;;;;;;;3.83;2.20;;;;;;;-141.84;48.15;20141.06;5060893;28;20198;-72
2023/06/04 02:05:08;;;;;;;4.37;2.10;;;;;;;-141.84;48.24;20143.09;5052042;28;20197;-71
2023/06/04 02:07:38;;;;;;;2.73;2.10;;;;;;;-141.84;47.81;20185.78;5066952;28;20627;-74
2023/06/04 02:10:07;;;;;;;2.90;2.17;;;;;;;-141.84;48.29;20163.41;5053243;28;20659;-72
2023/06/04 02:12:38;;;;;;;3.83;2.37;;;;;;;-141.84;48.36;20159.34;5055171;28;20243;-71
2023/06/04 02:15:09;;;;;;;3.43;2.67;;;;;;;-141.84;48.31;20151.22;5053911;28;20705;-71
2023/06/04 02:17:42;;;;;;;3.27;2.00;;;;;;;-141.84;48.19;20128.88;5054466;28;20221;-71
2023/06/04 02:20:13;;;;;;;3.47;2.00;;;;;;;-141.84;48.42;20151.22;5054337;28;20304;-71
2023/06/04 02:22:41;;;;;;;3.40;2.47;;;;;;;-141.84;48.33;20149.19;5054698;28;20190;-71
2023/06/04 02:25:10;;;;;;;2.73;2.10;;;;;;;-141.84;48.37;20151.22;5054813;28;20264;-72
2023/06/04 02:27:38;;;;;;;5.77;2.10;;;;;;;-141.84;48.07;20143.09;5054239;28;20202;-56
2023/06/04 02:30:08;;;;;;;2.37;2.17;;;;;;;-141.84;48.54;20141.06;5050522;28;20611;-55
2023/06/04 02:32:37;;;;;;;4.23;2.20;;;;;;;-141.84;48.91;20094.31;5068225;28;20204;-55
2023/06/04 02:35:06;;;;;;;2.60;2.40;;;;;;;-141.84;48.95;20118.69;5070179;28;20720;-53
2023/06/04 02:37:36;;;;;;;4.00;2.30;;;;;;;-141.84;48.96;20108.53;5070254;28;20206;-57
2023/06/04 02:40:05;;;;;;;4.47;2.17;;;;;;;-141.84;49.35;20092.28;5053897;28;20221;-56
2023/06/04 02:42:33;;;;;;;2.77;2.57;;;;;;;-141.84;49.67;20102.44;5049864;28;20209;-56
2023/06/04 02:45:02;;;;;;;3.30;2.40;;;;;;;-141.84;49.83;20102.44;5049742;28;20244;-56
2023/06/04 02:47:30;;;;;;;3.57;2.90;;;;;;;-141.84;49.41;20124.81;5049446;28;20209;-56
2023/06/04 02:49:59;;;;;;;3.17;2.40;;;;;;;-141.84;50.08;20088.22;5049955;28;20197;-57
2023/06/04 02:52:27;;;;;;;3.30;2.60;;;;;;;-141.84;49.67;20100.41;5049975;28;20304;-55
2023/06/04 02:54:57;;;;;;;3.37;2.57;;;;;;;-141.84;50.22;20102.44;5049796;28;20553;-56
2023/06/04 02:57:26;;;;;;;4.20;2.80;;;;;;;-141.84;50.09;20114.63;5049674;28;20676;-54
2023/06/04 02:59:55;;;;;;;4.37;2.93;;;;;;;-141.84;49.93;20100.41;5049631;28;20316;-56
2023/06/04 03:02:23;;;;;;;3.83;2.93;;;;;;;-141.84;50.60;20074.00;5058477;28;20252;-53
2023/06/04 03:04:54;;;;;;;3.33;2.87;;;;;;;-141.84;50.34;20088.22;5049701;28;20209;-56
2023/06/04 03:07:23;;;;;;;3.53;3.10;;;;;;;-141.84;50.38;20069.94;5064212;28;20194;-55
2023/06/04 03:09:52;;;;;;;3.27;2.70;;;;;;;-141.84;50.91;20084.16;5049798;28;20263;-55
2023/06/04 03:12:22;;;;;;;4.37;2.70;;;;;;;-141.84;51.12;20051.63;5049828;28;20241;-54
2023/06/04 03:14:50;;;;;;;3.93;2.53;;;;;;;-141.84;51.46;20049.59;5048989;28;20205;-55
2023/06/04 03:17:19;;;;;;;3.90;2.67;;;;;;;-141.84;51.58;20045.53;5030443;28;20297;-56
2023/06/04 03:19:47;;;;;;;5.50;2.97;;;;;;;-141.84;51.21;20057.72;5030226;28;20281;-55
2023/06/04 03:22:16;;;;;;;3.73;3.20;;;;;;;-141.84;51.37;20019.13;5030003;28;20208;-72
2023/06/04 03:24:45;;;;;;;3.53;3.00;;;;;;;-141.84;50.76;20094.31;5029638;28;20769;-73
2023/06/04 03:27:13;;;;;;;4.73;2.93;;;;;;;-141.84;50.50;20084.16;5036627;28;20260;-73
2023/06/04 03:29:43;;;;;;;3.60;2.67;;;;;;;-141.84;51.04;20090.25;5049600;28;20301;-73
2023/06/04 03:32:12;;;;;;;3.10;2.80;;;;;;;-141.84;51.24;20067.88;5063845;28;20215;-72
2023/06/04 03:34:41;;;;;;;3.30;2.87;;;;;;;-141.84;51.30;20055.69;5069350;28;20229;-72
2023/06/04 03:37:09;;;;;;;4.30;2.90;;;;;;;-141.84;51.24;20057.72;5069593;28;20295;-72
2023/06/04 03:39:38;;;;;;;3.30;2.63;;;;;;;-141.84;51.50;20076.03;5057135;28;20308;-72
2023/06/04 03:42:07;;;;;;;3.20;2.90;;;;;;;-141.84;51.42;20082.13;5052369;28;20213;-72
2023/06/04 03:44:35;;;;;;;3.70;2.90;;;;;;;-141.84;51.68;20039.44;5051081;28;20272;-73
2023/06/04 03:47:05;;;;;;;3.67;3.07;;;;;;;-141.84;51.75;20047.56;5051450;28;20586;-73
2023/06/04 03:49:34;;;;;;;4.17;2.93;;;;;;;-141.84;51.12;20088.22;5052766;28;20185;-72
2023/06/04 03:52:03;;;;;;;4.73;2.90;;;;;;;-141.84;50.62;20069.94;5052684;28;20240;-74
2023/06/04 03:54:31;;;;;;;3.23;2.93;;;;;;;-141.84;50.83;20118.69;5053321;28;20205;-72
2023/06/04 03:57:00;;;;;;;4.97;2.90;;;;;;;-141.84;51.18;20094.31;5052983;28;20205;-73
2023/06/04 03:59:28;;;;;;;3.27;2.97;;;;;;;-141.84;51.48;20067.88;5052935;28;20205;-71
2023/06/04 04:01:57;;;;;;;3.60;2.90;;;;;;;-141.84;50.84;20080.09;5061204;28;20284;-71
2023/06/04 04:04:27;;;;;;;5.30;3.07;;;;;;;-141.84;51.16;20078.06;5053223;28;20209;-72
2023/06/04 04:06:55;;;;;;;4.93;3.10;;;;;;;-141.84;51.16;20080.09;5067354;28;20197;-73
2023/06/04 04:09:24;;;;;;;3.77;3.20;;;;;;;-141.84;51.59;20078.06;5053177;28;20205;-71
2023/06/04 04:11:52;;;;;;;3.37;2.97;;;;;;;-141.84;51.48;20098.38;5047101;28;20301;-74
2023/06/04 04:14:21;;;;;;;3.17;2.83;;;;;;;-141.84;51.51;20094.31;5032631;28;20305;-71
2023/06/04 04:16:49;;;;;;;3.13;2.83;;;;;;;-141.84;51.30;20128.88;5032468;28;20226;-72
2023/06/04 04:19:18;;;;;;;4.33;3.30;;;;;;;-141.84;50.95;20096.34;5032484;28;20692;-71
2023/06/04 04:21:48;;;;;;;3.50;2.90;;;;;;;-141.84;51.15;20116.66;5032757;28;20232;-71
2023/06/04 04:24:24;;;;;;;4.50;3.27;;;;;;;-141.84;50.64;20132.94;5032663;28;20228;-73
2023/06/04 04:26:53;;;;;;;3.33;3.03;;;;;;;-141.84;50.92;20126.84;5035977;28;20660;-72
2023/06/04 04:29:24;;;;;;;3.97;3.10;;;;;;;-141.84;50.44;20153.25;5052371;28;20225;-71
2023/06/04 04:31:53;;;;;;;4.17;2.90;;;;;;;-141.84;50.54;20139.03;5064045;28;20193;-72
2023/06/04 04:34:21;;;;;;;4.07;3.10;;;;;;;-141.84;50.06;20147.16;5071813;28;20315;-72
2023/06/04 04:36:52;;;;;;;3.30;3.00;;;;;;;-141.84;50.18;20155.28;5072329;28;20254;-71
2023/06/04 04:39:24;;;;;;;4.97;3.43;;;;;;;-141.84;49.94;20175.63;5061918;28;20193;-72
2023/06/04 04:41:52;;;;;;;4.03;3.10;;;;;;;-141.84;48.96;20232.53;5051736;28;20210;-72
2023/06/04 04:44:21;;;;;;;3.47;2.97;;;;;;;-141.84;48.93;20277.25;5051678;28;20293;-72
2023/06/04 04:46:49;;;;;;;3.17;2.80;;;;;;;-141.84;48.46;20303.66;5051940;28;20595;-72
2023/06/04 04:49:18;;;;;;;4.97;3.37;;;;;;;-141.84;46.19;20468.31;5051977;28;20208;-73
2023/06/04 04:51:46;;;;;;;3.10;2.80;;;;;;;-141.84;42.78;20830.16;5051448;28;20641;-72
2023/06/04 04:54:16;;;;;;;3.10;2.70;;;;;;;-141.84;39.04;21232.69;5052031;28;20289;-72
2023/06/04 04:56:45;;;;;;;3.60;2.67;;;;;;;-141.84;35.38;21614.94;5051919;28;20205;-72
2023/06/04 04:59:13;;;;;;;3.03;2.22;;;;;;;-141.84;33.00;22062.28;5051871;28;20240;-73
2023/06/04 05:01:42;;;;;;;3.08;2.78;;;;;;;-141.84;30.65;22391.72;5060544;28;20246;-74
2023/06/04 05:04:10;;;;;;;3.53;2.88;;;;;;;-141.84;30.23;22473.06;5051993;28;20205;-71
2023/06/04 05:06:39;;;;;;;4.40;2.80;;;;;;;-141.84;29.17;22711.03;5065160;28;20697;-74
2023/06/04 05:09:08;;;;;;;3.10;2.90;;;;;;;-141.84;28.78;22914.41;5052183;28;20205;-74
2023/06/04 05:11:38;;;;;;;3.92;3.00;;;;;;;-141.84;28.09;22965.28;5051599;28;20299;-74
2023/06/04 05:14:06;;;;;;;3.97;2.53;;;;;;;-141.84;28.38;22987.63;5051861;28;20225;-73
2023/06/04 05:16:36;;;;;;;3.40;2.67;;;;;;;-141.84;27.44;23166.63;5051967;28;20229;-74
2023/06/04 05:19:04;;;;;;;5.60;2.60;;;;;;;-141.84;27.59;23140.19;5051801;28;20213;-73
2023/06/04 05:21:33;;;;;;;6.65;3.00;;;;;;;-141.84;27.98;22991.72;5051670;28;20221;-73
2023/06/04 05:24:01;;;;;;;3.28;2.45;;;;;;;-141.84;27.54;22981.53;5051677;28;20293;-74
2023/06/04 05:26:30;;;;;;;3.22;2.50;;;;;;;-141.84;28.38;22770.00;5051396;28;20213;-73
2023/06/04 05:29:00;;;;;;;3.25;2.40;;;;;;;-141.84;28.71;22739.50;5051218;28;20669;-73
2023/06/04 05:31:29;;;;;;;2.90;2.40;;;;;;;-141.84;29.21;22637.81;5059779;28;20287;-73
2023/06/04 05:33:59;;;;;;;4.68;2.50;;;;;;;-141.84;28.75;22566.63;5070753;28;20278;-72
2023/06/04 05:36:27;;;;;;;3.00;2.40;;;;;;;-141.84;29.85;22141.59;5071565;28;20258;-72
2023/06/04 05:38:56;;;;;;;3.47;2.22;;;;;;;-141.84;31.78;21810.13;5064314;28;20280;-73
2023/06/04 05:41:26;;;;;;;3.35;2.33;;;;;;;-141.84;33.72;21549.84;5050745;28;20225;-73
2023/06/04 05:43:54;;;;;;;3.00;2.20;;;;;;;-141.84;34.60;21383.13;5050667;28;20616;-73
2023/06/04 05:46:25;;;;;;;2.60;2.40;;;;;;;-141.84;35.53;21318.06;5051092;28;20287;-73
2023/06/04 05:48:53;;;;;;;3.97;2.22;;;;;;;-141.84;35.60;21354.66;5051174;28;20209;-71
2023/06/04 05:51:22;;;;;;;2.33;2.13;;;;;;;-141.84;36.15;21226.59;5050965;28;20212;-71
2023/06/04 05:53:50;;;;;;;2.88;2.03;;;;;;;-141.84;36.50;21204.22;5050453;28;20761;-72
2023/06/04 05:56:20;;;;;;;4.15;2.50;;;;;;;-141.84;37.57;21165.59;5051148;28;20198;-73
2023/06/04 05:58:53;;;;;;;2.85;2.03;;;;;;;-141.84;37.19;21145.25;5050908;28;20201;-72
2023/06/04 06:01:21;;;;;;;4.00;2.33;;;;;;;-141.84;37.43;21159.50;5057812;28;20610;-71
2023/06/04 06:03:51;;;;;;;2.38;2.10;;;;;;;-141.84;37.50;21143.22;5064729;28;20577;-72
2023/06/04 06:06:20;;;;;;;3.30;1.92;;;;;;;-141.84;37.83;21173.72;5060988;28;20192;-72
2023/06/04 06:08:49;;;;;;;4.22;2.05;;;;;;;-141.84;37.73;21129.00;5054447;28;20216;-71
2023/06/04 06:11:17;;;;;;;2.45;1.67;;;;;;;-141.84;37.83;21171.69;5050414;28;20296;-73
2023/06/04 06:13:46;;;;;;;2.53;2.08;;;;;;;-141.84;37.21;21147.28;5050496;28;20280;-71
2023/06/04 06:16:16;;;;;;;2.60;1.85;;;;;;;-141.84;37.62;21167.63;5049858;28;20688;-72
2023/06/04 06:18:45;;;;;;;3.63;1.80;;;;;;;-141.84;37.48;21185.91;5050398;28;20221;-72
2023/06/04 06:21:15;;;;;;;3.17;1.90;;;;;;;-141.84;37.72;21175.75;5050043;28;20225;-72
2023/06/04 06:23:43;;;;;;;4.28;1.80;;;;;;;-141.84;37.10;21159.50;5050701;28;20296;-74
2023/06/04 06:26:13;;;;;;;2.58;2.00;;;;;;;-141.84;37.31;21179.81;5050351;28;20566;-73
2023/06/04 06:28:42;;;;;;;8.75;3.05;;;;;;;-141.84;37.47;21147.28;5050445;28;20270;-72
2023/06/04 06:31:10;;;;;;;2.55;2.35;;;;;;;-141.84;37.82;21177.78;5056246;28;20204;-72
2023/06/04 06:33:40;;;;;;;2.47;2.28;;;;;;;-141.84;37.59;21265.22;5069959;28;20260;-72
2023/06/04 06:36:11;;;;;;;3.15;2.10;;;;;;;-141.84;37.25;21236.75;5069737;28;20628;-74
2023/06/04 06:38:41;;;;;;;2.70;2.17;;;;;;;-141.84;36.53;21248.94;5067474;28;20239;-73
2023/06/04 06:41:10;;;;;;;2.00;1.80;;;;;;;-141.84;36.85;21240.81;5070040;28;20224;-71
2023/06/04 06:43:38;;;;;;;3.05;1.90;;;;;;;-141.84;36.96;21277.41;5070201;28;20295;-73
2023/06/04 06:46:07;;;;;;;2.25;1.88;;;;;;;-141.84;36.35;21269.28;5070006;28;20295;-72
2023/06/04 06:48:35;;;;;;;2.75;1.48;;;;;;;-141.84;36.92;21240.81;5069797;28;20201;-72
2023/06/04 06:51:04;;;;;;;2.15;1.70;;;;;;;-141.84;36.74;21283.50;5070370;28;20201;-72
2023/06/04 06:53:33;;;;;;;2.63;1.40;;;;;;;-141.84;36.49;21253.00;5071353;28;20238;-73
2023/06/04 06:56:03;;;;;;;1.92;1.50;;;;;;;-141.84;36.64;21283.50;5069153;28;20265;-73
2023/06/04 06:58:31;;;;;;;1.65;1.50;;;;;;;-141.84;36.93;21314.00;5051404;28;20208;-73
2023/06/04 07:01:00;;;;;;;2.85;1.50;;;;;;;-141.84;36.39;21305.88;5051286;28;20205;-72
2023/06/04 07:03:28;;;;;;;2.00;1.42;;;;;;;-141.84;36.79;21307.91;5054836;28;20205;-72
2023/06/04 07:05:57;;;;;;;2.42;1.63;;;;;;;-141.84;37.59;21352.63;5058396;28;20538;-73
2023/06/04 07:08:26;;;;;;;2.85;1.42;;;;;;;-141.84;36.50;21346.53;5057623;28;20712;-73
2023/06/04 07:10:54;;;;;;;2.25;1.38;;;;;;;-141.84;36.03;21364.84;5051057;28;20288;-73
2023/06/04 07:13:24;;;;;;;1.48;1.33;;;;;;;-141.84;36.37;21358.75;5050812;28;20197;-74
2023/06/04 07:15:53;;;;;;;2.85;1.35;;;;;;;-141.84;35.81;21370.94;5052888;28;20296;-71
2023/06/04 07:18:21;;;;;;;2.47;1.50;;;;;;;-141.84;35.55;21375.00;5054837;28;20206;-72
2023/06/04 07:20:52;;;;;;;6.10;1.52;;;;;;;-141.84;35.36;21344.50;5055027;28;20232;-72
2023/06/04 07:23:23;;;;;;;2.63;1.40;;;;;;;-141.84;35.84;21370.94;5054575;28;20212;-72
2023/06/04 07:25:52;;;;;;;3.45;1.33;;;;;;;-141.84;35.54;21399.41;5054516;28;20657;-74
2023/06/04 07:28:20;;;;;;;2.25;1.50;;;;;;;-141.84;36.10;21387.19;5054896;28;20207;-73
2023/06/04 07:30:51;;;;;;;2.65;1.40;;;;;;;-141.84;35.57;21370.94;5057776;28;20207;-72
2023/06/04 07:33:20;;;;;;;2.22;1.50;;;;;;;-141.84;35.10;21427.88;5074518;28;20272;-72
2023/06/04 07:35:48;;;;;;;1.83;1.48;;;;;;;-141.84;35.27;21417.69;5074408;28;20243;-71
2023/06/04 07:38:17;;;;;;;2.15;1.55;;;;;;;-141.84;34.95;21425.84;5054208;28;20404;-72
2023/06/04 07:40:48;;;;;;;3.30;1.30;;;;;;;-141.84;34.44;21417.69;5054248;28;20204;-73
2023/06/04 07:43:16;;;;;;;2.35;2.10;;;;;;;-141.84;34.06;21399.41;5054459;28;20300;-72
2023/06/04 07:45:45;;;;;;;2.17;1.23;;;;;;;-141.84;34.75;21401.44;5054335;28;20205;-73
2023/06/04 07:48:15;;;;;;;3.13;1.13;;;;;;;-141.84;35.02;21377.03;5054341;28;20208;-72
2023/06/04 07:50:43;;;;;;;3.15;1.38;;;;;;;-141.84;34.29;21464.47;5054010;28;20293;-72
2023/06/04 07:53:12;;;;;;;2.63;1.30;;;;;;;-141.84;34.05;21464.47;5054325;28;20229;-72
2023/06/04 07:55:40;;;;;;;1.40;1.20;;;;;;;-141.84;33.74;21458.38;5054089;28;20692;-72
2023/06/04 07:58:09;;;;;;;1.65;1.20;;;;;;;-141.84;33.18;21456.34;5053334;28;20201;-73
2023/06/04 08:00:37;;;;;;;3.42;0.98;;;;;;;-141.84;33.39;21438.03;5056229;28;20645;-72
2023/06/04 08:03:06;;;;;;;2.95;1.35;;;;;;;-141.84;33.82;21407.53;5060450;28;20763;-72
2023/06/04 08:05:36;;;;;;;1.90;1.13;;;;;;;-141.84;33.75;21399.41;5058528;28;20200;-71
2023/06/04 08:08:05;;;;;;;1.70;1.20;;;;;;;-141.84;33.05;21454.28;5064212;28;20201;-73
2023/06/04 08:10:34;;;;;;;1.52;1.10;;;;;;;-141.84;32.42;21440.06;5018583;28;20201;-72
2023/06/04 08:13:02;;;;;;;2.72;1.10;;;;;;;-141.84;32.72;21433.97;5054155;28;20221;-73
2023/06/04 08:15:31;;;;;;;1.60;1.10;;;;;;;-141.84;32.78;21440.06;5053838;28;20244;-73
2023/06/04 08:17:59;;;;;;;1.58;1.17;;;;;;;-141.84;32.24;21393.31;5053806;28;20576;-73
2023/06/04 08:20:28;;;;;;;1.48;1.08;;;;;;;-141.84;32.48;21417.69;5054040;28;20263;-72
2023/06/04 08:22:58;;;;;;;1.83;1.20;;;;;;;-141.84;32.11;21466.50;5052911;28;20807;-72
2023/06/04 08:25:26;;;;;;;2.13;1.10;;;;;;;-141.84;31.56;21444.13;5053677;28;20705;-73
2023/06/04 08:27:55;;;;;;;2.20;1.10;;;;;;;-141.84;31.90;21397.38;5052767;28;20729;-72
2023/06/04 08:30:25;;;;;;;1.70;1.00;;;;;;;-141.84;31.81;21440.06;5053711;28;20764;-72
2023/06/04 08:32:53;;;;;;;1.15;0.98;;;;;;;-141.84;32.41;21391.28;5033244;28;20280;-70
2023/06/04 08:35:22;;;;;;;1.23;0.90;;;;;;;-141.84;32.17;21436.00;5047152;28;20193;-71
2023/06/04 08:37:50;;;;;;;1.35;0.90;;;;;;;-141.84;32.22;21509.19;5053232;28;20205;-72
2023/06/04 08:40:22;;;;;;;2.30;1.00;;;;;;;-141.84;31.69;21490.91;5052779;28;20609;-72
2023/06/04 08:42:51;;;;;;;1.35;1.25;;;;;;;-141.84;31.94;21462.44;5053176;28;20337;-73
2023/06/04 08:45:21;;;;;;;1.73;0.93;;;;;;;-141.84;31.63;21497.00;5052484;28;20562;-72
2023/06/04 08:47:51;;;;;;;1.33;1.00;;;;;;;-141.84;31.76;21521.41;5052557;28;20243;-73
2023/06/04 08:50:22;;;;;;;2.25;1.10;;;;;;;-141.84;31.63;21517.31;5052538;28;20205;-74
2023/06/04 08:52:55;;;;;;;1.95;1.10;;;;;;;-141.84;30.69;21507.16;5052231;28;20697;-74
2023/06/04 08:55:25;;;;;;;1.92;1.00;;;;;;;-141.84;31.45;21486.81;5052347;28;20602;-70
2023/06/04 08:57:54;;;;;;;2.22;1.17;;;;;;;-141.84;31.40;21503.09;5051850;28;20591;-72
2023/06/04 09:00:25;;;;;;;2.05;1.25;;;;;;;-141.84;31.30;21525.47;5052014;28;20577;-73
2023/06/04 09:02:54;;;;;;;1.20;1.10;;;;;;;-141.84;30.97;21517.31;5042887;28;20898;-72
2023/06/04 09:05:23;;;;;;;1.23;0.93;;;;;;;-141.84;30.84;21521.41;5052123;28;20285;-72
2023/06/04 09:07:55;;;;;;;1.20;1.10;;;;;;;-141.84;31.23;21511.22;5051559;28;20296;-71
2023/06/04 09:10:29;;;;;;;1.10;0.93;;;;;;;-141.84;31.37;21529.53;5051804;28;20239;-72
2023/06/04 09:13:03;;;;;;;2.58;1.17;;;;;;;-141.84;31.40;21533.59;5051323;28;20582;-72
2023/06/04 09:15:31;;;;;;;1.15;1.05;;;;;;;-141.84;30.98;21543.75;5051639;28;20236;-70
2023/06/04 09:18:00;;;;;;;1.52;1.02;;;;;;;-141.84;30.85;21533.59;5051038;28;20263;-72
2023/06/04 09:20:29;;;;;;;2.95;1.10;;;;;;;-141.84;30.62;21549.84;5049491;28;20217;-72
2023/06/04 09:22:58;;;;;;;1.50;0.98;;;;;;;-141.84;30.89;21521.41;5049661;28;20334;-72
2023/06/04 09:25:29;;;;;;;2.28;1.20;;;;;;;-141.84;30.86;21564.09;5052272;28;20304;-73
2023/06/04 09:28:06;;;;;;;2.33;1.08;;;;;;;-141.84;30.62;21572.22;5048724;28;20263;-71
2023/06/04 09:30:35;;;;;;;2.08;1.30;;;;;;;-141.84;30.33;21598.66;5051653;28;20202;-72
2023/06/04 09:33:08;;;;;;;1.05;0.95;;;;;;;-141.84;29.94;21588.50;5058683;28;20225;-71
2023/06/04 09:35:37;;;;;;;2.97;1.10;;;;;;;-141.84;30.08;21558.00;5070599;28;20718;-72
2023/06/04 09:38:06;;;;;;;2.13;1.23;;;;;;;-141.84;30.38;21549.84;5070653;28;20204;-72
2023/06/04 09:40:40;;;;;;;2.00;1.10;;;;;;;-141.84;30.33;21582.38;5071354;28;20772;-72
2023/06/04 09:43:08;;;;;;;1.30;1.10;;;;;;;-141.84;30.45;21562.06;5071567;28;20255;-71
2023/06/04 09:45:37;;;;;;;2.25;1.13;;;;;;;-141.84;30.56;21586.47;5071355;28;20222;-72
2023/06/04 09:48:06;;;;;;;1.58;1.10;;;;;;;-141.84;30.44;21555.97;5071164;28;20292;-70
2023/06/04 09:50:38;;;;;;;2.50;1.10;;;;;;;-141.84;30.16;21680.00;5070633;28;20582;-71
2023/06/04 09:53:15;;;;;;;1.35;1.00;;;;;;;-141.84;30.11;21602.72;5071444;28;20608;-71
2023/06/04 09:55:45;;;;;;;1.88;0.95;;;;;;;-141.84;29.84;21592.56;5071910;28;20189;-71
2023/06/04 09:58:14;;;;;;;1.15;1.05;;;;;;;-141.84;29.93;21627.13;5071346;28;20289;-72
2023/06/04 10:00:46;;;;;;;2.08;1.05;;;;;;;-141.84;29.35;21608.81;5071016;28;20303;-71
2023/06/04 10:03:19;;;;;;;2.15;1.10;;;;;;;-141.84;28.83;21621.03;5070902;28;20223;-73
2023/06/04 10:05:48;;;;;;;2.05;1.38;;;;;;;-141.84;29.09;21584.44;5032067;28;20372;-71
2023/06/04 10:08:18;;;;;;;2.13;0.98;;;;;;;-141.84;29.33;21651.53;5057699;28;20251;-72
2023/06/04 10:10:49;;;;;;;2.80;1.27;;;;;;;-141.84;28.72;21712.53;5051286;28;20192;-72
2023/06/04 10:13:20;;;;;;;3.63;1.92;;;;;;;-141.84;28.79;21675.94;5050802;28;20669;-71
2023/06/04 10:15:49;;;;;;;1.33;1.10;;;;;;;-141.84;28.97;21684.06;5050520;28;20273;-72
2023/06/04 10:18:18;;;;;;;2.42;1.00;;;;;;;-141.84;29.09;21651.53;5016328;28;20293;-72
2023/06/04 10:20:47;;;;;;;1.13;1.02;;;;;;;-141.84;28.25;21692.19;5050064;28;20288;-73
2023/06/04 10:23:20;;;;;;;2.30;1.13;;;;;;;-141.84;27.71;21688.13;5068171;28;20255;-74
2023/06/04 10:25:52;;;;;;;1.40;1.20;;;;;;;-141.84;28.35;21724.72;5055449;28;20208;-72
2023/06/04 10:28:22;;;;;;;1.55;1.10;;;;;;;-141.84;28.67;21712.53;5069788;28;20258;-56
2023/06/04 10:30:55;;;;;;;2.47;1.20;;;;;;;-141.84;28.71;21765.38;5069837;28;20580;-57
2023/06/04 10:33:28;;;;;;;1.25;1.00;;;;;;;-141.84;27.70;21769.47;5064331;28;20984;-57
2023/06/04 10:35:56;;;;;;;1.58;1.05;;;;;;;-141.84;27.60;21783.69;5069926;28;20293;-58
2023/06/04 10:38:26;;;;;;;1.30;1.00;;;;;;;-141.84;27.35;21765.38;5063519;28;20222;-58
2023/06/04 10:40:55;;;;;;;1.27;1.10;;;;;;;-141.84;27.33;21757.25;5069537;28;20205;-55
2023/06/04 10:43:31;;;;;;;1.83;0.90;;;;;;;-141.84;27.49;21787.75;5066258;28;20703;-56
2023/06/04 10:46:11;;;;;;;1.83;0.98;;;;;;;-141.84;27.36;21791.81;5066372;28;20648;-58
2023/06/04 10:48:50;;;;;;;3.13;1.20;;;;;;;-141.84;28.00;21799.97;5076515;28;20204;-56
2023/06/04 10:51:31;;;;;;;1.80;1.30;;;;;;;-141.84;28.20;21830.47;5079047;28;20199;-57
2023/06/04 10:54:01;;;;;;;2.47;1.10;;;;;;;-141.84;27.12;21850.78;5059724;28;21017;-58
2023/06/04 10:56:33;;;;;;;1.88;1.30;;;;;;;-141.84;26.37;21877.22;5056024;28;20701;-58
2023/06/04 10:59:13;;;;;;;1.75;1.20;;;;;;;-141.84;26.13;21887.41;5065193;28;20284;-73
2023/06/04 11:01:42;;;;;;;1.77;1.20;;;;;;;-141.84;26.91;21879.25;5064727;28;20291;-75
2023/06/04 11:04:23;;;;;;;1.60;1.27;;;;;;;-141.84;26.76;21867.06;5074535;28;20229;-75
2023/06/04 11:07:03;;;;;;;1.40;1.30;;;;;;;-141.84;26.06;21881.28;5073824;28;20218;-74
2023/06/04 11:09:32;;;;;;;1.33;1.23;;;;;;;-141.84;25.99;21844.69;5074015;28;20197;-74
2023/06/04 11:12:05;;;;;;;1.40;1.30;;;;;;;-141.84;26.22;21869.09;5074463;28;20418;-74
2023/06/04 11:14:34;;;;;;;2.00;1.30;;;;;;;-141.84;26.52;21858.94;5073735;28;20272;-73
2023/06/04 11:17:11;;;;;;;2.47;1.23;;;;;;;-141.84;26.71;21852.81;5074205;28;20200;-74
2023/06/04 11:19:40;;;;;;;2.58;1.20;;;;;;;-141.84;27.25;21830.47;5073809;28;20318;-74
2023/06/04 11:22:12;;;;;;;2.35;1.20;;;;;;;-141.84;27.24;21832.50;5074128;28;20208;-74
2023/06/04 11:24:41;;;;;;;2.40;1.40;;;;;;;-141.84;27.30;21840.63;5073732;28;20236;-75
2023/06/04 11:27:11;;;;;;;1.35;1.20;;;;;;;-141.84;27.28;21834.53;5073965;28;20208;-74
2023/06/04 11:29:59;;;;;;;2.65;1.30;;;;;;;-141.84;27.57;21822.31;5073435;28;20200;-73